sensor_id;sensor_type;location;lat;lon;timestamp;temperature;humidity
30594;DHT22;33199;47.590;8.300;2023-01-01T00:00:55;11.10;87.50
30594;DHT22;33199;47.590;8.300;2023-01-01T00:03:20;11.10;87.60
30594;DHT22;33199;47.590;8.300;2023-01-01T00:05:46;11.10;87.40
30594;DHT22;33199;47.590;8.300;2023-01-01T00:08:11;11.10;87.50
30594;DHT22;33199;47.590;8.300;2023-01-01T00:10:36;11.10;87.60
30594;DHT22;33199;47.590;8.300;2023-01-01T00:13:02;11.10;87.50
30594;DHT22;33199;47.590;8.300;2023-01-01T00:15:27;11.10;87.40
30594;DHT22;33199;47.590;8.300;2023-01-01T00:17:53;11.10;87.50
30594;DHT22;33199;47.590;8.300;2023-01-01T00:20:19;11.10;87.50
30594;DHT22;33199;47.590;8.300;2023-01-01T00:22:44;11.10;87.50
30594;DHT22;33199;47.590;8.300;2023-01-01T00:25:10;11.10;87.40
30594;DHT22;33199;47.590;8.300;2023-01-01T00:27:39;11.10;87.50
30594;DHT22;33199;47.590;8.300;2023-01-01T00:30:05;11.10;87.30
30594;DHT22;33199;47.590;8.300;2023-01-01T00:32:30;11.10;87.40
30594;DHT22;33199;47.590;8.300;2023-01-01T00:34:56;11.10;87.40
30594;DHT22;33199;47.590;8.300;2023-01-01T00:37:21;11.10;87.30
30594;DHT22;33199;47.590;8.300;2023-01-01T00:39:47;11.10;87.50
30594;DHT22;33199;47.590;8.300;2023-01-01T00:42:12;11.10;87.30
30594;DHT22;33199;47.590;8.300;2023-01-01T00:44:38;11.10;87.30
30594;DHT22;33199;47.590;8.300;2023-01-01T00:47:03;11.10;87.50
30594;DHT22;33199;47.590;8.300;2023-01-01T00:49:29;11.00;87.30
30594;DHT22;33199;47.590;8.300;2023-01-01T00:51:54;11.10;87.40
30594;DHT22;33199;47.590;8.300;2023-01-01T00:54:19;11.10;87.30
30594;DHT22;33199;47.590;8.300;2023-01-01T00:56:45;11.10;87.40
30594;DHT22;33199;47.590;8.300;2023-01-01T00:59:10;11.00;87.30
30594;DHT22;33199;47.590;8.300;2023-01-01T01:01:36;11.10;87.30
30594;DHT22;33199;47.590;8.300;2023-01-01T01:04:02;11.00;87.30
30594;DHT22;33199;47.590;8.300;2023-01-01T01:06:28;11.10;87.20
30594;DHT22;33199;47.590;8.300;2023-01-01T01:08:53;11.10;88.20
30594;DHT22;33199;47.590;8.300;2023-01-01T01:11:20;11.10;87.30
30594;DHT22;33199;47.590;8.300;2023-01-01T01:13:46;11.00;87.10
30594;DHT22;33199;47.590;8.300;2023-01-01T01:16:16;11.00;87.10
30594;DHT22;33199;47.590;8.300;2023-01-01T01:18:43;11.00;87.10
30594;DHT22;33199;47.590;8.300;2023-01-01T01:21:08;11.00;87.40
30594;DHT22;33199;47.590;8.300;2023-01-01T01:23:34;11.00;87.30
30594;DHT22;33199;47.590;8.300;2023-01-01T01:26:07;11.00;87.30
30594;DHT22;33199;47.590;8.300;2023-01-01T01:28:32;11.00;87.30
30594;DHT22;33199;47.590;8.300;2023-01-01T01:31:00;11.00;87.10
30594;DHT22;33199;47.590;8.300;2023-01-01T01:33:26;11.00;87.10
30594;DHT22;33199;47.590;8.300;2023-01-01T01:35:51;11.00;87.30
30594;DHT22;33199;47.590;8.300;2023-01-01T01:38:17;11.00;87.30
30594;DHT22;33199;47.590;8.300;2023-01-01T01:40:42;11.00;87.20
30594;DHT22;33199;47.590;8.300;2023-01-01T01:43:11;11.00;87.40
30594;DHT22;33199;47.590;8.300;2023-01-01T01:45:42;11.00;87.00
30594;DHT22;33199;47.590;8.300;2023-01-01T01:48:08;11.00;87.30
30594;DHT22;33199;47.590;8.300;2023-01-01T01:50:35;11.00;87.10
30594;DHT22;33199;47.590;8.300;2023-01-01T01:53:03;11.00;87.20
30594;DHT22;33199;47.590;8.300;2023-01-01T01:55:31;11.00;87.10
30594;DHT22;33199;47.590;8.300;2023-01-01T01:57:58;10.90;87.10
30594;DHT22;33199;47.590;8.300;2023-01-01T02:00:24;11.00;87.20
30594;DHT22;33199;47.590;8.300;2023-01-01T02:05:14;11.00;87.10
30594;DHT22;33199;47.590;8.300;2023-01-01T02:07:41;11.00;87.10
30594;DHT22;33199;47.590;8.300;2023-01-01T02:10:06;10.90;87.00
30594;DHT22;33199;47.590;8.300;2023-01-01T02:12:32;11.00;87.20
30594;DHT22;33199;47.590;8.300;2023-01-01T02:14:57;11.00;87.10
30594;DHT22;33199;47.590;8.300;2023-01-01T02:17:26;10.90;87.10
30594;DHT22;33199;47.590;8.300;2023-01-01T02:22:41;10.90;87.00
30594;DHT22;33199;47.590;8.300;2023-01-01T02:27:57;11.00;87.30
30594;DHT22;33199;47.590;8.300;2023-01-01T02:30:25;10.90;87.00
30594;DHT22;33199;47.590;8.300;2023-01-01T02:32:55;10.90;87.00
30594;DHT22;33199;47.590;8.300;2023-01-01T02:35:27;10.90;87.00
30594;DHT22;33199;47.590;8.300;2023-01-01T02:38:02;10.90;87.00
30594;DHT22;33199;47.590;8.300;2023-01-01T02:40:29;10.90;87.10
30594;DHT22;33199;47.590;8.300;2023-01-01T02:42:54;10.90;87.00
30594;DHT22;33199;47.590;8.300;2023-01-01T02:45:21;10.90;87.00
30594;DHT22;33199;47.590;8.300;2023-01-01T02:47:46;10.90;86.90
30594;DHT22;33199;47.590;8.300;2023-01-01T02:50:19;10.90;87.10
30594;DHT22;33199;47.590;8.300;2023-01-01T02:58:12;10.90;87.00
30594;DHT22;33199;47.590;8.300;2023-01-01T03:01:02;10.90;87.00
30594;DHT22;33199;47.590;8.300;2023-01-01T03:03:34;10.90;87.20
30594;DHT22;33199;47.590;8.300;2023-01-01T03:08:54;10.90;87.00
30594;DHT22;33199;47.590;8.300;2023-01-01T03:11:22;10.90;87.00
30594;DHT22;33199;47.590;8.300;2023-01-01T03:16:18;10.90;87.00
30594;DHT22;33199;47.590;8.300;2023-01-01T03:21:38;10.90;87.10
30594;DHT22;33199;47.590;8.300;2023-01-01T03:24:04;10.90;87.00
30594;DHT22;33199;47.590;8.300;2023-01-01T03:26:31;10.90;86.90
30594;DHT22;33199;47.590;8.300;2023-01-01T03:28:59;10.90;87.00
30594;DHT22;33199;47.590;8.300;2023-01-01T03:31:26;10.90;86.90
30594;DHT22;33199;47.590;8.300;2023-01-01T03:33:53;10.90;87.10
30594;DHT22;33199;47.590;8.300;2023-01-01T03:36:20;10.80;86.90
30594;DHT22;33199;47.590;8.300;2023-01-01T03:38:54;10.80;86.80
30594;DHT22;33199;47.590;8.300;2023-01-01T03:41:22;10.80;86.90
30594;DHT22;33199;47.590;8.300;2023-01-01T03:43:55;10.80;86.80
30594;DHT22;33199;47.590;8.300;2023-01-01T03:46:25;10.90;87.00
30594;DHT22;33199;47.590;8.300;2023-01-01T03:48:52;10.80;87.00
30594;DHT22;33199;47.590;8.300;2023-01-01T03:51:22;10.90;87.10
30594;DHT22;33199;47.590;8.300;2023-01-01T03:53:49;10.90;87.00
30594;DHT22;33199;47.590;8.300;2023-01-01T03:56:18;10.90;87.20
30594;DHT22;33199;47.590;8.300;2023-01-01T03:58:48;10.80;86.90
30594;DHT22;33199;47.590;8.300;2023-01-01T04:01:25;10.80;86.90
30594;DHT22;33199;47.590;8.300;2023-01-01T04:03:50;10.80;86.80
30594;DHT22;33199;47.590;8.300;2023-01-01T04:06:16;10.90;87.00
30594;DHT22;33199;47.590;8.300;2023-01-01T04:08:41;10.80;86.80
30594;DHT22;33199;47.590;8.300;2023-01-01T04:11:09;10.80;86.90
30594;DHT22;33199;47.590;8.300;2023-01-01T04:13:55;10.80;86.80
30594;DHT22;33199;47.590;8.300;2023-01-01T04:16:21;10.80;87.00
30594;DHT22;33199;47.590;8.300;2023-01-01T04:18:46;10.80;87.00
30594;DHT22;33199;47.590;8.300;2023-01-01T04:21:12;10.80;87.00
30594;DHT22;33199;47.590;8.300;2023-01-01T04:23:37;10.80;87.20
30594;DHT22;33199;47.590;8.300;2023-01-01T04:26:04;10.80;86.80
30594;DHT22;33199;47.590;8.300;2023-01-01T04:28:30;10.80;86.80
30594;DHT22;33199;47.590;8.300;2023-01-01T04:30:59;10.80;86.90
30594;DHT22;33199;47.590;8.300;2023-01-01T04:33:25;10.80;86.90
30594;DHT22;33199;47.590;8.300;2023-01-01T04:35:52;10.80;86.90
30594;DHT22;33199;47.590;8.300;2023-01-01T04:38:17;10.80;86.80
30594;DHT22;33199;47.590;8.300;2023-01-01T04:40:43;10.80;86.80
30594;DHT22;33199;47.590;8.300;2023-01-01T04:43:08;10.80;86.90
30594;DHT22;33199;47.590;8.300;2023-01-01T04:45:33;10.80;86.80
30594;DHT22;33199;47.590;8.300;2023-01-01T04:48:03;10.80;87.00
30594;DHT22;33199;47.590;8.300;2023-01-01T04:50:28;10.80;87.00
30594;DHT22;33199;47.590;8.300;2023-01-01T04:52:54;10.80;86.80
30594;DHT22;33199;47.590;8.300;2023-01-01T04:55:19;10.80;86.80
30594;DHT22;33199;47.590;8.300;2023-01-01T04:57:44;10.80;86.80
30594;DHT22;33199;47.590;8.300;2023-01-01T05:00:10;10.80;86.80
30594;DHT22;33199;47.590;8.300;2023-01-01T05:02:36;10.80;86.80
30594;DHT22;33199;47.590;8.300;2023-01-01T05:05:01;10.80;86.80
30594;DHT22;33199;47.590;8.300;2023-01-01T05:07:27;10.70;86.70
30594;DHT22;33199;47.590;8.300;2023-01-01T05:09:52;10.70;86.70
30594;DHT22;33199;47.590;8.300;2023-01-01T05:12:18;10.80;86.80
30594;DHT22;33199;47.590;8.300;2023-01-01T05:14:43;10.70;86.90
30594;DHT22;33199;47.590;8.300;2023-01-01T05:17:08;10.80;86.90
30594;DHT22;33199;47.590;8.300;2023-01-01T05:19:34;10.80;86.80
30594;DHT22;33199;47.590;8.300;2023-01-01T05:21:59;10.70;86.60
30594;DHT22;33199;47.590;8.300;2023-01-01T05:24:25;10.70;86.70
30594;DHT22;33199;47.590;8.300;2023-01-01T05:26:51;10.70;87.50
30594;DHT22;33199;47.590;8.300;2023-01-01T05:29:17;10.70;86.70
30594;DHT22;33199;47.590;8.300;2023-01-01T05:31:44;10.70;86.70
30594;DHT22;33199;47.590;8.300;2023-01-01T05:34:11;10.70;86.70
30594;DHT22;33199;47.590;8.300;2023-01-01T05:36:36;10.70;86.80
30594;DHT22;33199;47.590;8.300;2023-01-01T05:39:06;10.70;86.80
30594;DHT22;33199;47.590;8.300;2023-01-01T05:41:32;10.70;86.70
30594;DHT22;33199;47.590;8.300;2023-01-01T05:44:00;10.70;86.70
30594;DHT22;33199;47.590;8.300;2023-01-01T05:46:26;10.70;86.80
30594;DHT22;33199;47.590;8.300;2023-01-01T05:48:53;10.70;86.70
30594;DHT22;33199;47.590;8.300;2023-01-01T05:51:19;10.70;86.90
30594;DHT22;33199;47.590;8.300;2023-01-01T05:53:45;10.70;86.70
30594;DHT22;33199;47.590;8.300;2023-01-01T05:56:11;10.70;86.70
30594;DHT22;33199;47.590;8.300;2023-01-01T05:58:37;10.70;86.70
30594;DHT22;33199;47.590;8.300;2023-01-01T06:03:34;10.70;86.70
30594;DHT22;33199;47.590;8.300;2023-01-01T06:06:04;10.70;86.70
30594;DHT22;33199;47.590;8.300;2023-01-01T06:08:29;10.60;87.10
30594;DHT22;33199;47.590;8.300;2023-01-01T06:10:58;10.70;86.70
30594;DHT22;33199;47.590;8.300;2023-01-01T06:13:24;10.70;86.80
30594;DHT22;33199;47.590;8.300;2023-01-01T06:15:53;10.70;86.80
30594;DHT22;33199;47.590;8.300;2023-01-01T06:18:19;10.70;86.70
30594;DHT22;33199;47.590;8.300;2023-01-01T06:20:44;10.70;86.70
30594;DHT22;33199;47.590;8.300;2023-01-01T06:23:10;10.70;86.70
30594;DHT22;33199;47.590;8.300;2023-01-01T06:25:35;10.70;86.80
30594;DHT22;33199;47.590;8.300;2023-01-01T06:28:01;10.60;86.70
30594;DHT22;33199;47.590;8.300;2023-01-01T06:30:26;10.60;86.80
30594;DHT22;33199;47.590;8.300;2023-01-01T06:32:52;10.60;87.60
30594;DHT22;33199;47.590;8.300;2023-01-01T06:35:17;10.60;86.60
30594;DHT22;33199;47.590;8.300;2023-01-01T06:37:43;10.60;86.60
30594;DHT22;33199;47.590;8.300;2023-01-01T06:40:08;10.60;86.70
30594;DHT22;33199;47.590;8.300;2023-01-01T06:42:34;10.60;86.60
30594;DHT22;33199;47.590;8.300;2023-01-01T06:44:59;10.60;86.60
30594;DHT22;33199;47.590;8.300;2023-01-01T06:47:25;10.60;86.60
30594;DHT22;33199;47.590;8.300;2023-01-01T06:49:50;10.60;86.70
30594;DHT22;33199;47.590;8.300;2023-01-01T06:52:15;10.60;86.70
30594;DHT22;33199;47.590;8.300;2023-01-01T06:54:41;10.60;86.60
30594;DHT22;33199;47.590;8.300;2023-01-01T06:57:06;10.60;86.60
30594;DHT22;33199;47.590;8.300;2023-01-01T06:59:32;10.60;86.70
30594;DHT22;33199;47.590;8.300;2023-01-01T07:01:57;10.60;86.60
30594;DHT22;33199;47.590;8.300;2023-01-01T07:04:23;10.60;86.60
30594;DHT22;33199;47.590;8.300;2023-01-01T07:06:48;10.60;86.70
30594;DHT22;33199;47.590;8.300;2023-01-01T07:09:13;10.60;86.60
30594;DHT22;33199;47.590;8.300;2023-01-01T07:11:39;10.60;86.60
30594;DHT22;33199;47.590;8.300;2023-01-01T07:14:04;10.60;86.50
30594;DHT22;33199;47.590;8.300;2023-01-01T07:16:30;10.60;86.60
30594;DHT22;33199;47.590;8.300;2023-01-01T07:18:55;10.60;86.60
30594;DHT22;33199;47.590;8.300;2023-01-01T07:21:23;10.60;86.60
30594;DHT22;33199;47.590;8.300;2023-01-01T07:23:49;10.60;86.70
30594;DHT22;33199;47.590;8.300;2023-01-01T07:26:15;10.60;86.60
30594;DHT22;33199;47.590;8.300;2023-01-01T07:28:41;10.60;86.60
30594;DHT22;33199;47.590;8.300;2023-01-01T07:31:06;10.60;86.60
30594;DHT22;33199;47.590;8.300;2023-01-01T07:33:32;10.60;86.60
30594;DHT22;33199;47.590;8.300;2023-01-01T07:35:57;10.60;86.60
30594;DHT22;33199;47.590;8.300;2023-01-01T07:38:22;10.60;86.70
30594;DHT22;33199;47.590;8.300;2023-01-01T07:40:48;10.50;86.70
30594;DHT22;33199;47.590;8.300;2023-01-01T07:43:13;10.60;86.70
30594;DHT22;33199;47.590;8.300;2023-01-01T07:45:39;10.60;86.50
30594;DHT22;33199;47.590;8.300;2023-01-01T07:48:04;10.60;86.70
30594;DHT22;33199;47.590;8.300;2023-01-01T07:50:31;10.60;86.60
30594;DHT22;33199;47.590;8.300;2023-01-01T07:52:56;10.60;86.80
30594;DHT22;33199;47.590;8.300;2023-01-01T07:55:22;10.60;86.60
30594;DHT22;33199;47.590;8.300;2023-01-01T07:57:47;10.60;86.60
30594;DHT22;33199;47.590;8.300;2023-01-01T08:00:14;10.50;86.50
30594;DHT22;33199;47.590;8.300;2023-01-01T08:02:40;10.50;86.60
30594;DHT22;33199;47.590;8.300;2023-01-01T08:05:06;10.50;86.60
30594;DHT22;33199;47.590;8.300;2023-01-01T08:07:31;10.60;87.50
30594;DHT22;33199;47.590;8.300;2023-01-01T08:09:57;10.50;86.60
30594;DHT22;33199;47.590;8.300;2023-01-01T08:12:23;10.50;86.60
30594;DHT22;33199;47.590;8.300;2023-01-01T08:14:48;10.50;86.60
30594;DHT22;33199;47.590;8.300;2023-01-01T08:17:14;10.50;86.40
30594;DHT22;33199;47.590;8.300;2023-01-01T08:19:39;10.50;86.60
30594;DHT22;33199;47.590;8.300;2023-01-01T08:22:06;10.50;86.60
30594;DHT22;33199;47.590;8.300;2023-01-01T08:24:32;10.50;86.60
30594;DHT22;33199;47.590;8.300;2023-01-01T08:26:57;10.50;86.60
30594;DHT22;33199;47.590;8.300;2023-01-01T08:29:23;10.50;86.60
30594;DHT22;33199;47.590;8.300;2023-01-01T08:31:49;10.50;86.60
30594;DHT22;33199;47.590;8.300;2023-01-01T08:34:14;10.50;86.60
30594;DHT22;33199;47.590;8.300;2023-01-01T08:36:40;10.50;86.50
30594;DHT22;33199;47.590;8.300;2023-01-01T08:39:06;10.50;86.80
30594;DHT22;33199;47.590;8.300;2023-01-01T08:41:31;10.50;86.60
30594;DHT22;33199;47.590;8.300;2023-01-01T08:43:57;10.50;86.60
30594;DHT22;33199;47.590;8.300;2023-01-01T08:46:22;10.50;86.70
30594;DHT22;33199;47.590;8.300;2023-01-01T08:48:48;10.50;86.80
30594;DHT22;33199;47.590;8.300;2023-01-01T08:51:13;10.50;86.70
30594;DHT22;33199;47.590;8.300;2023-01-01T08:53:39;10.50;86.60
30594;DHT22;33199;47.590;8.300;2023-01-01T08:56:05;10.50;86.70
30594;DHT22;33199;47.590;8.300;2023-01-01T08:58:31;10.50;86.70
30594;DHT22;33199;47.590;8.300;2023-01-01T09:00:57;10.50;86.70
30594;DHT22;33199;47.590;8.300;2023-01-01T09:03:23;10.50;86.70
30594;DHT22;33199;47.590;8.300;2023-01-01T09:05:49;10.40;86.60
30594;DHT22;33199;47.590;8.300;2023-01-01T09:08:14;10.50;86.70
30594;DHT22;33199;47.590;8.300;2023-01-01T09:10:40;10.50;86.70
30594;DHT22;33199;47.590;8.300;2023-01-01T09:13:11;10.50;86.80
30594;DHT22;33199;47.590;8.300;2023-01-01T09:15:37;10.50;86.70
30594;DHT22;33199;47.590;8.300;2023-01-01T09:18:03;10.50;86.80
30594;DHT22;33199;47.590;8.300;2023-01-01T09:20:28;10.50;86.70
30594;DHT22;33199;47.590;8.300;2023-01-01T09:22:54;10.50;86.80
30594;DHT22;33199;47.590;8.300;2023-01-01T09:25:19;10.50;86.80
30594;DHT22;33199;47.590;8.300;2023-01-01T09:27:45;10.50;86.30
30594;DHT22;33199;47.590;8.300;2023-01-01T09:30:10;10.40;85.40
30594;DHT22;33199;47.590;8.300;2023-01-01T09:32:36;10.40;85.00
30594;DHT22;33199;47.590;8.300;2023-01-01T09:35:01;10.30;85.20
30594;DHT22;33199;47.590;8.300;2023-01-01T09:37:27;10.30;85.10
30594;DHT22;33199;47.590;8.300;2023-01-01T09:39:52;10.20;85.50
30594;DHT22;33199;47.590;8.300;2023-01-01T09:49:49;10.30;86.00
30594;DHT22;33199;47.590;8.300;2023-01-01T09:52:16;10.30;85.80
30594;DHT22;33199;47.590;8.300;2023-01-01T09:57:11;10.30;85.80
30594;DHT22;33199;47.590;8.300;2023-01-01T09:59:37;10.30;85.90
30594;DHT22;33199;47.590;8.300;2023-01-01T10:02:10;10.30;86.00
30594;DHT22;33199;47.590;8.300;2023-01-01T10:12:40;10.30;86.00
30594;DHT22;33199;47.590;8.300;2023-01-01T10:15:11;10.30;86.10
30594;DHT22;33199;47.590;8.300;2023-01-01T10:17:39;10.30;86.10
30594;DHT22;33199;47.590;8.300;2023-01-01T10:20:10;10.30;86.20
30594;DHT22;33199;47.590;8.300;2023-01-01T10:22:39;10.30;86.20
30594;DHT22;33199;47.590;8.300;2023-01-01T10:25:23;10.30;86.30
30594;DHT22;33199;47.590;8.300;2023-01-01T10:27:55;10.30;86.40
30594;DHT22;33199;47.590;8.300;2023-01-01T10:30:22;10.30;86.40
30594;DHT22;33199;47.590;8.300;2023-01-01T10:32:49;10.30;86.60
30594;DHT22;33199;47.590;8.300;2023-01-01T10:35:16;10.30;86.50
30594;DHT22;33199;47.590;8.300;2023-01-01T10:37:42;10.30;86.40
30594;DHT22;33199;47.590;8.300;2023-01-01T10:40:18;10.30;86.50
30594;DHT22;33199;47.590;8.300;2023-01-01T10:42:48;10.30;86.50
30594;DHT22;33199;47.590;8.300;2023-01-01T10:45:15;10.40;86.60
30594;DHT22;33199;47.590;8.300;2023-01-01T10:48:07;10.40;86.70
30594;DHT22;33199;47.590;8.300;2023-01-01T10:50:39;10.30;86.60
30594;DHT22;33199;47.590;8.300;2023-01-01T10:53:07;10.40;86.70
30594;DHT22;33199;47.590;8.300;2023-01-01T10:55:46;10.40;86.80
30594;DHT22;33199;47.590;8.300;2023-01-01T10:58:25;10.40;86.70
30594;DHT22;33199;47.590;8.300;2023-01-01T11:00:57;10.40;87.20
30594;DHT22;33199;47.590;8.300;2023-01-01T11:03:23;10.40;87.00
30594;DHT22;33199;47.590;8.300;2023-01-01T11:08:47;10.40;87.10
30594;DHT22;33199;47.590;8.300;2023-01-01T11:14:02;10.40;87.00
30594;DHT22;33199;47.590;8.300;2023-01-01T11:16:29;10.40;87.00
30594;DHT22;33199;47.590;8.300;2023-01-01T11:19:02;10.40;87.00
30594;DHT22;33199;47.590;8.300;2023-01-01T11:21:28;10.40;87.10
30594;DHT22;33199;47.590;8.300;2023-01-01T11:24:15;10.40;87.10
30594;DHT22;33199;47.590;8.300;2023-01-01T11:26:42;10.40;87.10
30594;DHT22;33199;47.590;8.300;2023-01-01T11:31:46;10.40;87.10
30594;DHT22;33199;47.590;8.300;2023-01-01T11:36:43;10.40;87.00
30594;DHT22;33199;47.590;8.300;2023-01-01T11:41:44;10.50;87.10
30594;DHT22;33199;47.590;8.300;2023-01-01T11:44:10;10.40;87.10
30594;DHT22;33199;47.590;8.300;2023-01-01T11:46:37;10.40;86.90
30594;DHT22;33199;47.590;8.300;2023-01-01T11:49:10;10.40;86.90
30594;DHT22;33199;47.590;8.300;2023-01-01T11:51:36;10.40;86.90
30594;DHT22;33199;47.590;8.300;2023-01-01T11:57:04;10.50;87.00
30594;DHT22;33199;47.590;8.300;2023-01-01T11:59:45;10.50;87.10
30594;DHT22;33199;47.590;8.300;2023-01-01T12:02:12;10.50;87.20
30594;DHT22;33199;47.590;8.300;2023-01-01T12:04:42;10.50;87.00
30594;DHT22;33199;47.590;8.300;2023-01-01T12:07:08;10.50;86.80
30594;DHT22;33199;47.590;8.300;2023-01-01T12:17:31;10.50;86.80
30594;DHT22;33199;47.590;8.300;2023-01-01T12:22:35;10.50;87.00
30594;DHT22;33199;47.590;8.300;2023-01-01T12:25:01;10.50;87.00
30594;DHT22;33199;47.590;8.300;2023-01-01T12:27:31;10.50;86.90
30594;DHT22;33199;47.590;8.300;2023-01-01T12:37:49;10.60;87.00
30594;DHT22;33199;47.590;8.300;2023-01-01T12:40:30;10.60;86.90
30594;DHT22;33199;47.590;8.300;2023-01-01T12:45:39;10.60;86.80
30594;DHT22;33199;47.590;8.300;2023-01-01T12:51:04;10.60;86.90
30594;DHT22;33199;47.590;8.300;2023-01-01T12:58:30;10.60;87.00
30594;DHT22;33199;47.590;8.300;2023-01-01T13:00:58;10.60;86.80
30594;DHT22;33199;47.590;8.300;2023-01-01T13:03:29;10.60;87.00
30594;DHT22;33199;47.590;8.300;2023-01-01T13:05:56;10.60;86.90
30594;DHT22;33199;47.590;8.300;2023-01-01T13:08:21;10.60;87.00
30594;DHT22;33199;47.590;8.300;2023-01-01T13:10:51;10.60;86.90
30594;DHT22;33199;47.590;8.300;2023-01-01T13:13:17;10.60;86.90
30594;DHT22;33199;47.590;8.300;2023-01-01T13:15:44;10.60;86.90
30594;DHT22;33199;47.590;8.300;2023-01-01T13:20:38;10.60;86.90
30594;DHT22;33199;47.590;8.300;2023-01-01T13:23:05;10.60;87.00
30594;DHT22;33199;47.590;8.300;2023-01-01T13:25:30;10.70;87.00
30594;DHT22;33199;47.590;8.300;2023-01-01T13:35:36;10.70;87.00
30594;DHT22;33199;47.590;8.300;2023-01-01T13:38:02;10.60;86.80
30594;DHT22;33199;47.590;8.300;2023-01-01T13:40:28;10.70;87.00
30594;DHT22;33199;47.590;8.300;2023-01-01T13:45:40;10.90;87.20
30594;DHT22;33199;47.590;8.300;2023-01-01T13:48:17;11.20;85.80
30594;DHT22;33199;47.590;8.300;2023-01-01T13:56:15;11.90;82.10
30594;DHT22;33199;47.590;8.300;2023-01-01T13:58:52;12.10;81.00
30594;DHT22;33199;47.590;8.300;2023-01-01T14:01:27;12.30;79.80
30594;DHT22;33199;47.590;8.300;2023-01-01T14:03:56;12.20;80.00
30594;DHT22;33199;47.590;8.300;2023-01-01T14:06:27;12.10;80.50
30594;DHT22;33199;47.590;8.300;2023-01-01T14:08:59;12.00;81.00
30594;DHT22;33199;47.590;8.300;2023-01-01T14:11:25;11.90;81.60
30594;DHT22;33199;47.590;8.300;2023-01-01T14:13:50;11.80;82.20
30594;DHT22;33199;47.590;8.300;2023-01-01T14:16:16;11.70;82.50
30594;DHT22;33199;47.590;8.300;2023-01-01T14:18:45;11.60;83.00
30594;DHT22;33199;47.590;8.300;2023-01-01T14:21:15;11.60;83.40
30594;DHT22;33199;47.590;8.300;2023-01-01T14:23:45;11.50;83.60
30594;DHT22;33199;47.590;8.300;2023-01-01T14:26:14;11.50;83.80
30594;DHT22;33199;47.590;8.300;2023-01-01T14:28:40;11.50;84.00
30594;DHT22;33199;47.590;8.300;2023-01-01T14:31:09;11.50;84.20
30594;DHT22;33199;47.590;8.300;2023-01-01T14:33:35;11.40;84.30
30594;DHT22;33199;47.590;8.300;2023-01-01T14:36:02;11.40;84.40
30594;DHT22;33199;47.590;8.300;2023-01-01T14:38:29;11.40;84.60
30594;DHT22;33199;47.590;8.300;2023-01-01T14:43:26;11.40;84.90
30594;DHT22;33199;47.590;8.300;2023-01-01T14:45:52;11.30;84.80
30594;DHT22;33199;47.590;8.300;2023-01-01T14:48:18;11.40;84.90
30594;DHT22;33199;47.590;8.300;2023-01-01T14:50:45;11.30;84.90
30594;DHT22;33199;47.590;8.300;2023-01-01T14:53:12;11.30;85.00
30594;DHT22;33199;47.590;8.300;2023-01-01T14:55:40;11.60;82.70
30594;DHT22;33199;47.590;8.300;2023-01-01T14:58:08;11.80;80.70
30594;DHT22;33199;47.590;8.300;2023-01-01T15:00:35;12.10;79.60
30594;DHT22;33199;47.590;8.300;2023-01-01T15:06:00;12.40;77.80
30594;DHT22;33199;47.590;8.300;2023-01-01T15:08:26;12.50;77.10
30594;DHT22;33199;47.590;8.300;2023-01-01T15:10:52;12.60;76.80
30594;DHT22;33199;47.590;8.300;2023-01-01T15:13:19;12.70;76.70
30594;DHT22;33199;47.590;8.300;2023-01-01T15:15:46;12.70;76.60
30594;DHT22;33199;47.590;8.300;2023-01-01T15:20:56;12.70;76.50
30594;DHT22;33199;47.590;8.300;2023-01-01T15:23:21;12.70;76.60
30594;DHT22;33199;47.590;8.300;2023-01-01T15:25:46;12.70;77.00
30594;DHT22;33199;47.590;8.300;2023-01-01T15:28:18;12.60;78.30
30594;DHT22;33199;47.590;8.300;2023-01-01T15:30:44;12.60;77.90
30594;DHT22;33199;47.590;8.300;2023-01-01T15:33:15;12.60;78.20
30594;DHT22;33199;47.590;8.300;2023-01-01T15:35:44;12.50;78.40
30594;DHT22;33199;47.590;8.300;2023-01-01T15:38:11;12.50;78.50
30594;DHT22;33199;47.590;8.300;2023-01-01T15:40:39;12.40;79.00
30594;DHT22;33199;47.590;8.300;2023-01-01T15:43:13;12.40;79.40
30594;DHT22;33199;47.590;8.300;2023-01-01T15:45:40;12.30;79.60
30594;DHT22;33199;47.590;8.300;2023-01-01T15:50:35;12.20;80.60
30594;DHT22;33199;47.590;8.300;2023-01-01T15:53:17;12.10;81.00
30594;DHT22;33199;47.590;8.300;2023-01-01T15:55:44;12.10;81.40
30594;DHT22;33199;47.590;8.300;2023-01-01T15:58:17;12.00;81.80
30594;DHT22;33199;47.590;8.300;2023-01-01T16:00:43;11.90;82.10
30594;DHT22;33199;47.590;8.300;2023-01-01T16:03:19;11.90;82.30
30594;DHT22;33199;47.590;8.300;2023-01-01T16:05:46;11.90;82.50
30594;DHT22;33199;47.590;8.300;2023-01-01T16:08:13;11.80;82.60
30594;DHT22;33199;47.590;8.300;2023-01-01T16:10:39;11.80;82.80
30594;DHT22;33199;47.590;8.300;2023-01-01T16:13:04;11.80;83.00
30594;DHT22;33199;47.590;8.300;2023-01-01T16:15:30;11.80;83.10
30594;DHT22;33199;47.590;8.300;2023-01-01T16:17:55;11.70;83.20
30594;DHT22;33199;47.590;8.300;2023-01-01T16:20:21;11.70;83.30
30594;DHT22;33199;47.590;8.300;2023-01-01T16:22:46;11.70;83.40
30594;DHT22;33199;47.590;8.300;2023-01-01T16:25:16;11.70;83.50
30594;DHT22;33199;47.590;8.300;2023-01-01T16:27:42;11.70;83.60
30594;DHT22;33199;47.590;8.300;2023-01-01T16:30:07;11.70;83.70
30594;DHT22;33199;47.590;8.300;2023-01-01T16:32:33;11.70;83.80
30594;DHT22;33199;47.590;8.300;2023-01-01T16:34:59;11.70;83.90
30594;DHT22;33199;47.590;8.300;2023-01-01T16:37:24;11.60;83.90
30594;DHT22;33199;47.590;8.300;2023-01-01T16:39:49;11.60;83.90
30594;DHT22;33199;47.590;8.300;2023-01-01T16:42:15;11.60;84.00
30594;DHT22;33199;47.590;8.300;2023-01-01T16:44:41;11.60;84.00
30594;DHT22;33199;47.590;8.300;2023-01-01T16:47:06;11.60;84.10
30594;DHT22;33199;47.590;8.300;2023-01-01T16:49:32;11.60;84.20
30594;DHT22;33199;47.590;8.300;2023-01-01T16:51:57;11.60;84.20
30594;DHT22;33199;47.590;8.300;2023-01-01T16:54:23;11.60;84.30
30594;DHT22;33199;47.590;8.300;2023-01-01T16:56:48;11.60;84.30
30594;DHT22;33199;47.590;8.300;2023-01-01T16:59:14;11.60;84.30
30594;DHT22;33199;47.590;8.300;2023-01-01T17:01:39;11.60;84.40
30594;DHT22;33199;47.590;8.300;2023-01-01T17:04:05;11.60;84.40
30594;DHT22;33199;47.590;8.300;2023-01-01T17:06:30;11.60;84.50
30594;DHT22;33199;47.590;8.300;2023-01-01T17:08:57;11.50;84.40
30594;DHT22;33199;47.590;8.300;2023-01-01T17:11:23;11.60;84.60
30594;DHT22;33199;47.590;8.300;2023-01-01T17:13:49;11.50;84.40
30594;DHT22;33199;47.590;8.300;2023-01-01T17:16:14;11.50;84.50
30594;DHT22;33199;47.590;8.300;2023-01-01T17:18:41;11.50;84.60
30594;DHT22;33199;47.590;8.300;2023-01-01T17:21:07;11.50;84.60
30594;DHT22;33199;47.590;8.300;2023-01-01T17:23:34;11.60;84.70
30594;DHT22;33199;47.590;8.300;2023-01-01T17:26:05;11.50;84.60